Legenda:
Basso (0-210)
Molto Alto (490 - 630)

Moderato (210 - 350)
Estremo (630 - 800)

Alto (350 - 490)
Molto estremo (800+)


 
235.00
Date Temp. (°C) Wind Speed (km/h) Rain (mm) RH Days Since Rain pwsFWI
La previsione è attiva (incluso oggi!), I valori sono sopra la linea rossa.
23/09/21 23.00 11.00 2.40 0.81 0 226.44
22/09/21 24.00 10.00 1.80 0.72 0 267.34
21/09/21 24.00 12.00 1.30 0.68 0 294.94
20/09/21 28.00 21.00 0.00 0.39 9 331.26
19/09/21 28.00 22.00 0.00 0.52 8 274.75
18/09/21 27.70 13.00 0.00 0.54 7 235.00
17/09/21 28.60 12.00 0.00 0.59 6 243.49
16/09/21 28.10 17.00 0.00 0.81 5 150.25
15/09/21 27.40 19.00 0.00 0.72 4 178.56
14/09/21 27.60 18.00 0.00 0.69 3 228.55
13/09/21 26.70 13.00 0.00 0.55 2 248.59
12/09/21 27.10 16.00 0.00 0.53 1 354.30
11/09/21 26.30 26.00 5.10 0.61 0 461.94
10/09/21 25.70 18.00 29.40 0.61 0 533.04
09/09/21 28.20 24.00 0.00 0.51 5 522.62
08/09/21 26.80 17.00 0.00 0.48 4 431.88
07/09/21 29.10 27.00 0.00 0.32 3 415.62
06/09/21 28.80 28.00 0.00 0.37 2 316.31
05/09/21 28.20 24.00 0.00 0.57 1 246.26
04/09/21 27.70 16.00 2.10 0.73 0 237.58
03/09/21 27.60 36.00 3.00 0.73 0 355.77
02/09/21 27.80 17.00 0.00 0.63 7 567.55
01/09/21 27.00 21.00 0.00 0.67 6 714.23
31/08/21 27.50 16.00 0.00 0.40 5 469.36
30/08/21 27.40 18.00 0.00 0.58 4 439.62
29/08/21 26.60 24.00 0.00 0.41 3 484.76
28/08/21 33.40 33.00 0.00 0.29 2 495.09
27/08/21 34.50 27.00 0.00 0.34 1 489.71
26/08/21 27.60 18.00 6.00 0.64 0 358.22
25/08/21 27.70 17.00 0.00 0.67 5 347.30
CumulusUtils Version 2.1.7 © Hans Rottier
Science background here. - NOTE: Behavioural testing still under way!
Prediction courtesy of https://www.yourweather.co.uk/